Domov               UVHVVR             MKGP            O straneh              
ZDRAVSTVENO VARSTVO RASTLIN
  MREŽA AGROMET. POSTAJ
 ► PROGNOSTIČNA OBVESTILA
AGROMETEOROLOŠKI PODATKI -
ARSO
OBVLADOVANJE TVEGANJ ZARADI
NEUGODNIH VREMENSKIH RAZMER
  ► NARAVNE NESREČE
  ► SUŠA/MOČA
  ► NAMAKANJE
  ► ŽLED (gozdarstvo)
KARTOGRAFSKI PRIKAZI
SPLETNE POVEZAVE
PROJEKTI IN PUBLIKACIJE

AGROMETEOROLOŠKA MREŽA: VREMENSKE POSTAJE IN FENOLOŠKA OPAZOVANJA

Pregled podatkov za lokacijo Žalec (PDC), meteorološka postaja 2079

Pregled senzorjev na lokaciji

ID Ime Zadnja
vrednost
Datum in čas
zadnje
spremembe
(Lokalni čas)
Tip
senzorja
4888 Sončno sevanje (W/m2) 0 W/m2 19.2.2020 02:00 SP-Lite 2000 W/m²
4208 Omočenost lista (U) 10 U 19.2.2020 02:00 A730WET
4213 Padavine (mm) 0 mm 19.2.2020 02:00 Generic 0.2 mm
4207 Relativna vlaga 2 m (% RH) 98.97 % RH 19.2.2020 02:00 Generic 0 - 100 %
4887 Temperatura tal 5 cm (°C) 6.8 °C 19.2.2020 02:00 Generic -20 - +40 °C
4206 Temperatura 2 m (°C) 3.69 °C 19.2.2020 02:00 Generic -40 - +60 °C
4210 Smer vetra (°) 87.38 ° 19.2.2020 02:00 Generic 0 - 360
4209 Hitrost vetra (km/h) 0.29 km/h 19.2.2020 02:00 Generic 200 km/h

Pregled podatkov zadnjih 24 ur

Zap.
št.
Datum in čas
(Centralno
evropski čas)
Žalec (PDC)
Sončno
sevanje
Omočenost
lista
Padavine Relativna
vlaga
2
m
Temperatura
tal
5
cm
Temperatura
2
m
Smer
vetra
Hitrost
vetra
1 19.2.2020 02:00 0 10 0 99 6.8 3.7 87.4 0.3
2 19.2.2020 01:30 0 10 0 98.5 6.8 3.6 227.9 1.9
3 19.2.2020 01:00 0 10 0 98.9 6.9 3.8 30.4 2.2
4 19.2.2020 00:30 0 10 0 98.3 7 3.3 332.7 0.9
5 19.2.2020 00:00 0 10 0 97.3 7.1 3.3 169.7 0.2
6 18.2.2020 23:30 0 10 0 95.9 7.2 4.5 274.2 1.7
7 18.2.2020 23:00 0 9 0 96.2 7.3 4.7 25.6 2
8 18.2.2020 22:30 0 4 0 93.3 7.4 5.3 162.5 1.7
9 18.2.2020 22:00 0 2 0 93.7 7.5 6 82 0.3
10 18.2.2020 21:30 0 1 0 92.6 7.6 5.9 319.4 0.2
11 18.2.2020 21:00 0 1 0 91.7 7.6 6.3 227.8 0.4
12 18.2.2020 20:30 0 1 0 91.2 7.7 6.5 320.6 0
13 18.2.2020 20:00 0 0 0 88 7.8 7.1 148.4 0.8
14 18.2.2020 19:30 0 0 0 85.5 7.9 7.9 159 0.1
15 18.2.2020 19:00 0 0 0 81 7.9 8.8 175 1.4
16 18.2.2020 18:30 0 0 0 78.7 8 9.3 86.7 2.9
17 18.2.2020 18:00 0 0 0 78.3 8 9.6 78.8 4.6
18 18.2.2020 17:30 10.7 0 0 78 8 10.1 85.7 6
19 18.2.2020 17:00 27.4 0 0 75.8 8.1 10.6 66.1 5.5
20 18.2.2020 16:30 64.5 0 0 68.7 8.1 11.6 69.2 6.3
21 18.2.2020 16:00 84.5 0 0 61.2 8.1 12 124.4 6.1
22 18.2.2020 15:30 123.6 0 0 62.6 8 12.1 92.7 6.6
23 18.2.2020 15:00 115.3 0 0 63.6 7.9 12.1 123.8 6.2
24 18.2.2020 14:30 143.6 0 0 69.6 7.9 12.2 142.9 3.2
25 18.2.2020 14:00 122.1 0 0 70.6 7.8 11.9 36.7 4.5
26 18.2.2020 13:30 149.5 0 0 73.6 7.8 11.8 70.3 5.1
27 18.2.2020 13:00 142.1 0 0 75 7.6 11.5 86.2 4
28 18.2.2020 12:30 182.7 0 0 75.7 7.5 11.4 99.2 5.3
29 18.2.2020 12:00 212.9 0 0 77.1 7.4 11.1 81.8 5.7
30 18.2.2020 11:30 223.7 0 0 77.7 7.3 10.7 63.8 4.5
31 18.2.2020 11:00 200.7 0 0 77 7.2 10.6 107.7 2.1
32 18.2.2020 10:30 128 0 0 80.4 7.1 9.7 6.9 0.5
33 18.2.2020 10:00 120.6 0 0 83.4 7 8.8 247.1 2.4
34 18.2.2020 09:30 80.6 0 0 85.2 7 8.3 266.5 3.3
35 18.2.2020 09:00 52.7 1 0 87.5 7 7.8 290.9 1.4
36 18.2.2020 08:30 24.9 1 0 88.8 7 7.5 235.8 2.6
37 18.2.2020 08:00 5.9 10 0 86.1 6.9 7.6 43.5 2.6
38 18.2.2020 07:30 0 10 0 84.8 7 7.7 58.1 3.8
39 18.2.2020 07:00 0 5 0 84.5 7 7.4 92 3.2
40 18.2.2020 06:30 0 0 0 83.4 7 7.5 259.5 3.9
41 18.2.2020 06:00 0 0 0 84 7 8 278 4.1
42 18.2.2020 05:30 0 0 0 84.7 7 8.2 271.6 3.5
43 18.2.2020 05:00 0 0 0 82 6.9 9 238.8 4
44 18.2.2020 04:30 0 0 0 81.6 6.9 9.1 310.4 4.6
45 18.2.2020 04:00 0 0 0 81.8 6.9 9 330 5.1
46 18.2.2020 03:30 0 0 0 82 6.9 8.9 275.6 5.8
47 18.2.2020 03:00 0 0 0 81 6.9 9.7 301.5 8.4
48 18.2.2020 02:30 0 0 0 81.2 6.9 9.4 303.2 7
© 2011 Ministrstvo za kmetijstvo, gozdarstvo in prehrano. Vse pravice pridržane.